Time;durP1;ratioP1;P1;durP2;ratioP2;P2;SDS_P1;SDS_P2;PMS_P1;PMS_P2;Temp;Humidity;BMP_temperature;BMP_pressure;BME280_temperature;BME280_humidity;BME280_pressure;Samples;Min_cycle;Max_cycle;Signal;HPM_P1;HPM_P2
2022/08/01 00:02:02;;;;;;;3.50;1.05;;;24.10;50.30;;;;;;4999650;28;20058;-43
2022/08/01 00:04:29;;;;;;;2.30;1.10;;;24.10;50.20;;;;;;5003588;28;20054;-42
2022/08/01 00:06:58;;;;;;;4.35;1.13;;;24.10;50.30;;;;;;5000103;28;20054;-46
2022/08/01 00:09:25;;;;;;;1.52;1.02;;;24.10;50.40;;;;;;4997631;28;20085;-44
2022/08/01 00:11:52;;;;;;;2.70;1.35;;;24.10;50.40;;;;;;4997808;28;20058;-42
2022/08/01 00:14:19;;;;;;;2.15;1.10;;;24.10;50.40;;;;;;5000140;28;20058;-43
2022/08/01 00:16:47;;;;;;;1.48;0.90;;;24.10;50.40;;;;;;4997912;28;20061;-42
2022/08/01 00:19:14;;;;;;;2.17;1.20;;;24.10;50.40;;;;;;5002780;28;20053;-44
2022/08/01 00:21:41;;;;;;;2.72;1.30;;;24.10;50.60;;;;;;4997338;28;20064;-44
2022/08/01 00:24:10;;;;;;;4.35;1.33;;;24.00;50.60;;;;;;5002521;28;20064;-45
2022/08/01 00:26:37;;;;;;;3.47;1.20;;;24.10;50.60;;;;;;4998271;28;20054;-45
2022/08/01 00:29:04;;;;;;;2.00;1.08;;;24.00;50.60;;;;;;4994530;28;20054;-45
2022/08/01 00:31:31;;;;;;;2.10;1.30;;;24.00;50.60;;;;;;4996636;28;20068;-42
2022/08/01 00:33:59;;;;;;;2.08;0.90;;;24.00;50.70;;;;;;5000457;28;20054;-45
2022/08/01 00:36:26;;;;;;;3.97;1.35;;;24.00;50.70;;;;;;5001705;28;20050;-44
2022/08/01 00:38:53;;;;;;;2.33;1.10;;;24.00;50.80;;;;;;4999429;28;20280;-47
2022/08/01 00:41:22;;;;;;;4.43;1.13;;;24.00;50.80;;;;;;4999141;28;20066;-46
2022/08/01 00:43:49;;;;;;;2.33;1.15;;;23.90;50.90;;;;;;4996940;28;20483;-42
2022/08/01 00:46:16;;;;;;;4.90;1.00;;;23.90;50.90;;;;;;5001102;28;20050;-47
2022/08/01 00:48:43;;;;;;;2.45;0.95;;;23.90;51.00;;;;;;4995559;28;20054;-44
2022/08/01 00:51:11;;;;;;;1.83;1.00;;;23.90;51.00;;;;;;4990821;28;20530;-46
2022/08/01 00:53:39;;;;;;;3.00;1.20;;;23.90;51.10;;;;;;4999940;28;20510;-44
2022/08/01 00:56:07;;;;;;;3.38;1.00;;;23.90;51.10;;;;;;4997245;28;20053;-42
2022/08/01 00:58:36;;;;;;;2.38;1.10;;;23.90;51.20;;;;;;4999205;28;20065;-41
2022/08/01 01:01:03;;;;;;;2.88;1.20;;;23.80;51.30;;;;;;4996541;28;20054;-45
2022/08/01 01:03:31;;;;;;;2.38;1.10;;;23.90;51.30;;;;;;4999995;28;20050;-45
2022/08/01 01:06:12;;;;;;;2.13;1.20;;;23.80;51.30;;;;;;5001584;28;20057;-46
2022/08/01 01:08:44;;;;;;;7.47;1.30;;;23.80;51.50;;;;;;5000300;28;20053;-44
2022/08/01 01:11:17;;;;;;;1.83;1.10;;;23.80;51.50;;;;;;4993597;28;20494;-48
2022/08/01 01:13:50;;;;;;;4.63;1.63;;;23.80;51.70;;;;;;5000191;28;20490;-47
2022/08/01 01:16:19;;;;;;;2.47;1.20;;;23.70;51.80;;;;;;4999963;28;20054;-42
2022/08/01 01:18:48;;;;;;;3.40;1.20;;;23.70;51.80;;;;;;4998528;28;20054;-45
2022/08/01 01:21:45;;;;;;;3.33;1.40;;;23.70;51.90;;;;;;4997298;28;20065;-42
2022/08/01 01:24:22;;;;;;;3.80;1.23;;;23.70;52.10;;;;;;5003852;28;20073;-47
2022/08/01 01:26:58;;;;;;;4.32;1.45;;;23.60;52.00;;;;;;5004190;28;20042;-42
2022/08/01 01:29:31;;;;;;;4.32;1.40;;;23.60;52.20;;;;;;4998505;28;20069;-43
2022/08/01 01:32:04;;;;;;;3.05;1.40;;;23.60;52.20;;;;;;5004087;28;20405;-47
2022/08/01 01:34:40;;;;;;;6.03;1.20;;;23.60;52.30;;;;;;5004804;28;20536;-43
2022/08/01 01:37:13;;;;;;;1.63;1.10;;;23.60;52.40;;;;;;5004755;28;20066;-43
2022/08/01 01:39:42;;;;;;;2.08;1.15;;;23.60;52.40;;;;;;4987946;28;20065;-45
2022/08/01 01:42:11;;;;;;;2.33;1.30;;;23.60;52.40;;;;;;5004699;28;20061;-46
2022/08/01 01:44:41;;;;;;;2.97;1.33;;;23.60;52.40;;;;;;5001863;28;20058;-45
2022/08/01 01:47:08;;;;;;;2.60;1.15;;;23.60;52.70;;;;;;4989754;28;20058;-45
2022/08/01 01:49:35;;;;;;;2.13;1.20;;;23.60;52.60;;;;;;4994190;28;20058;-45
2022/08/01 01:52:04;;;;;;;1.95;1.10;;;23.60;52.60;;;;;;5001428;28;20510;-45
2022/08/01 01:54:41;;;;;;;3.88;1.50;;;23.60;52.70;;;;;;5000885;28;20283;-43
2022/08/01 01:57:11;;;;;;;4.13;1.77;;;23.60;52.90;;;;;;5002203;28;20053;-45
2022/08/01 01:59:41;;;;;;;2.55;1.42;;;23.50;53.00;;;;;;4999557;28;20060;-44
2022/08/01 02:02:10;;;;;;;1.40;1.15;;;23.50;53.00;;;;;;5000372;28;20054;-46
2022/08/01 02:04:43;;;;;;;4.00;1.80;;;23.50;52.90;;;;;;5004460;28;20072;-44
2022/08/01 02:07:12;;;;;;;3.40;1.50;;;23.50;53.30;;;;;;5005235;28;20054;-42
2022/08/01 02:09:42;;;;;;;4.13;1.50;;;23.50;53.10;;;;;;4995865;28;20053;-48
2022/08/01 02:12:12;;;;;;;2.95;1.58;;;23.40;53.60;;;;;;5003518;28;20062;-42
2022/08/01 02:14:44;;;;;;;4.55;1.75;;;23.40;53.70;;;;;;4997282;28;20054;-46
2022/08/01 02:17:13;;;;;;;4.88;1.67;;;23.40;54.10;;;;;;4995568;28;20050;-42
2022/08/01 02:19:40;;;;;;;4.35;2.38;;;23.40;54.00;;;;;;4990599;28;20058;-43
2022/08/01 02:22:11;;;;;;;3.70;1.58;;;23.30;54.20;;;;;;5002676;28;20060;-44
2022/08/01 02:24:42;;;;;;;3.28;1.80;;;23.30;54.50;;;;;;5003182;28;20058;-43
2022/08/01 02:27:13;;;;;;;8.02;2.08;;;23.20;55.20;;;;;;4998191;28;20045;-48
2022/08/01 02:29:45;;;;;;;6.38;2.13;;;23.20;55.10;;;;;;4995119;28;20057;-44
2022/08/01 02:32:17;;;;;;;3.42;2.20;;;23.20;55.40;;;;;;4993006;28;20046;-45
2022/08/01 02:34:47;;;;;;;3.65;2.28;;;23.10;55.60;;;;;;5002509;28;20054;-45
2022/08/01 02:37:16;;;;;;;5.85;2.30;;;23.10;55.60;;;;;;5004033;28;20053;-49
2022/08/01 02:39:47;;;;;;;5.38;2.30;;;23.00;55.90;;;;;;5002256;28;20058;-43
2022/08/01 02:42:16;;;;;;;2.80;2.00;;;23.00;55.90;;;;;;5003044;28;20061;-42
2022/08/01 02:44:47;;;;;;;4.07;1.90;;;22.90;55.90;;;;;;5003189;28;20064;-42
2022/08/01 02:47:16;;;;;;;3.30;1.98;;;22.90;56.10;;;;;;5003831;28;20050;-43
2022/08/01 02:49:46;;;;;;;2.95;1.90;;;22.90;56.20;;;;;;5001283;28;20056;-44
2022/08/01 02:52:16;;;;;;;3.05;1.90;;;22.90;56.20;;;;;;5000136;28;20061;-46
2022/08/01 02:54:45;;;;;;;5.22;2.65;;;22.80;56.40;;;;;;5000957;28;20057;-44
2022/08/01 02:57:13;;;;;;;3.63;2.15;;;22.80;56.50;;;;;;5001392;28;20054;-44
2022/08/01 02:59:43;;;;;;;4.90;2.53;;;22.80;56.40;;;;;;5000131;28;20064;-45
2022/08/01 03:02:12;;;;;;;3.28;2.08;;;22.80;57.30;;;;;;5001224;28;20053;-44
2022/08/01 03:04:42;;;;;;;3.65;1.75;;;22.80;56.50;;;;;;5003568;28;20517;-42
2022/08/01 03:07:11;;;;;;;3.97;2.03;;;22.80;56.50;;;;;;5002695;28;20050;-47
2022/08/01 03:09:42;;;;;;;7.63;2.47;;;22.80;56.50;;;;;;4999213;28;20062;-46
2022/08/01 03:12:13;;;;;;;2.55;2.08;;;22.80;56.60;;;;;;5004057;28;20065;-45
2022/08/01 03:14:42;;;;;;;3.55;2.40;;;22.90;56.60;;;;;;5001933;28;20058;-42
2022/08/01 03:17:12;;;;;;;6.07;2.58;;;22.90;56.50;;;;;;5002938;28;20054;-46
2022/08/01 03:19:42;;;;;;;5.25;2.40;;;22.90;56.60;;;;;;5002088;28;20057;-44
2022/08/01 03:22:12;;;;;;;4.88;2.13;;;22.80;56.50;;;;;;5004311;28;20058;-44
2022/08/01 03:24:42;;;;;;;6.95;2.67;;;22.90;56.60;;;;;;5000358;28;20072;-43
2022/08/01 03:27:10;;;;;;;5.43;2.30;;;22.90;57.20;;;;;;5002141;28;20065;-46
2022/08/01 03:29:39;;;;;;;3.70;2.10;;;22.90;56.40;;;;;;4998705;28;20061;-46
2022/08/01 03:32:07;;;;;;;8.43;2.28;;;22.90;56.60;;;;;;5003052;28;20060;-44
2022/08/01 03:34:36;;;;;;;3.67;2.45;;;22.90;56.70;;;;;;5004676;28;20050;-45
2022/08/01 03:37:07;;;;;;;4.20;2.40;;;22.90;56.70;;;;;;5003621;28;20083;-50
2022/08/01 03:39:40;;;;;;;4.60;2.42;;;22.90;56.70;;;;;;5002244;28;20409;-45
2022/08/01 03:42:14;;;;;;;4.90;3.30;;;22.80;56.80;;;;;;5004271;28;20061;-45
2022/08/01 03:44:42;;;;;;;7.43;2.90;;;22.80;56.90;;;;;;5003666;28;20304;-47
2022/08/01 03:47:11;;;;;;;9.32;3.42;;;22.80;56.80;;;;;;5004089;28;20061;-43
2022/08/01 03:49:43;;;;;;;6.15;3.42;;;22.80;57.00;;;;;;5004357;28;20438;-43
2022/08/01 03:52:13;;;;;;;6.75;3.65;;;22.80;57.00;;;;;;5003575;28;20057;-43
2022/08/01 03:54:45;;;;;;;6.22;3.20;;;22.80;57.00;;;;;;5002185;28;20060;-42
2022/08/01 03:57:12;;;;;;;5.68;3.42;;;22.80;57.10;;;;;;5003568;28;20050;-43
2022/08/01 03:59:40;;;;;;;4.60;3.40;;;22.80;57.10;;;;;;5001796;28;20053;-44
2022/08/01 04:02:08;;;;;;;3.90;2.70;;;22.80;57.30;;;;;;5002452;28;20060;-44
2022/08/01 04:04:36;;;;;;;7.88;3.80;;;22.80;57.10;;;;;;5001947;28;20416;-43
2022/08/01 04:07:06;;;;;;;5.55;3.50;;;22.80;57.30;;;;;;5000062;28;20053;-43
2022/08/01 04:09:34;;;;;;;6.35;3.53;;;22.80;57.40;;;;;;4996846;28;20054;-44
2022/08/01 04:12:02;;;;;;;3.88;2.80;;;22.70;57.30;;;;;;5002542;28;20061;-43
2022/08/01 04:14:29;;;;;;;6.10;2.80;;;22.70;57.30;;;;;;5001226;28;20402;-45
2022/08/01 04:16:56;;;;;;;6.30;4.00;;;22.70;57.30;;;;;;4997991;28;20052;-44
2022/08/01 04:19:23;;;;;;;10.55;3.58;;;22.70;57.50;;;;;;4999626;28;20046;-43
2022/08/01 04:21:51;;;;;;;8.23;3.83;;;22.70;57.50;;;;;;5000145;28;20069;-44
2022/08/01 04:24:23;;;;;;;7.15;3.50;;;22.70;57.60;;;;;;5001074;28;20053;-43
2022/08/01 04:26:53;;;;;;;8.23;4.45;;;22.70;57.60;;;;;;5003199;28;20061;-43
2022/08/01 04:29:21;;;;;;;6.55;4.18;;;22.70;57.60;;;;;;5002364;28;20053;-43
2022/08/01 04:31:50;;;;;;;8.68;3.47;;;22.70;57.80;;;;;;5001165;28;20510;-45
2022/08/01 04:34:21;;;;;;;6.03;3.42;;;22.70;57.90;;;;;;5003304;28;20418;-45
2022/08/01 04:36:49;;;;;;;9.02;3.33;;;22.70;57.80;;;;;;5002912;28;20406;-43
2022/08/01 04:39:20;;;;;;;6.95;4.00;;;22.70;57.80;;;;;;5002855;28;20069;-44
2022/08/01 04:41:48;;;;;;;5.40;3.40;;;22.70;58.00;;;;;;5002356;28;20084;-43
2022/08/01 04:44:16;;;;;;;6.43;3.97;;;22.70;57.80;;;;;;4999540;28;20064;-43
2022/08/01 04:46:44;;;;;;;7.35;4.35;;;22.70;58.00;;;;;;4998683;28;20504;-43
2022/08/01 04:49:12;;;;;;;6.18;3.47;;;22.60;58.00;;;;;;5002433;28;20069;-43
2022/08/01 04:51:51;;;;;;;6.03;3.53;;;22.70;57.90;;;;;;4993391;28;20050;-43
2022/08/01 04:54:21;;;;;;;13.70;4.50;;;22.60;58.20;;;;;;5002449;28;20518;-43
2022/08/01 04:56:48;;;;;;;7.88;3.75;;;22.70;58.10;;;;;;4999223;28;20045;-46
2022/08/01 05:02:06;;;;;;;7.95;3.97;;;22.70;57.90;;;;;;4989827;28;20057;-44
2022/08/01 05:04:34;;;;;;;5.45;4.15;;;22.80;57.90;;;;;;5001939;28;20061;-44
2022/08/01 05:07:01;;;;;;;7.28;3.80;;;22.80;57.90;;;;;;4994419;28;20077;-42
2022/08/01 05:09:31;;;;;;;4.00;3.28;;;22.80;57.90;;;;;;4997541;28;20056;-46
2022/08/01 05:11:59;;;;;;;7.07;4.03;;;22.90;57.90;;;;;;5000720;28;20053;-46
2022/08/01 05:14:27;;;;;;;9.70;4.97;;;22.80;57.80;;;;;;4999606;28;20391;-45
2022/08/01 05:16:56;;;;;;;9.57;4.75;;;22.80;57.90;;;;;;5000722;28;20065;-45
2022/08/01 05:19:23;;;;;;;7.55;4.57;;;22.80;57.90;;;;;;5000857;28;20124;-45
2022/08/01 05:21:50;;;;;;;6.38;4.15;;;22.90;58.00;;;;;;4995498;28;20543;-43
2022/08/01 05:24:18;;;;;;;9.27;4.82;;;22.90;57.90;;;;;;4997266;28;20069;-47
2022/08/01 05:26:46;;;;;;;5.97;3.83;;;22.90;58.00;;;;;;4996810;28;20049;-45
2022/08/01 05:29:13;;;;;;;5.03;3.50;;;22.90;58.00;;;;;;4999295;28;20050;-43
2022/08/01 05:31:41;;;;;;;11.00;4.63;;;22.90;58.00;;;;;;4997558;28;20058;-42
2022/08/01 05:34:08;;;;;;;6.75;4.22;;;22.90;58.00;;;;;;4998061;28;20061;-46
2022/08/01 05:36:37;;;;;;;11.25;5.78;;;22.90;58.10;;;;;;5001612;28;20060;-45
2022/08/01 05:39:04;;;;;;;9.48;5.10;;;23.00;58.10;;;;;;4996037;28;20054;-49
2022/08/01 05:41:32;;;;;;;9.57;5.13;;;23.00;58.20;;;;;;5000220;28;20415;-44
2022/08/01 05:44:00;;;;;;;8.80;5.50;;;23.00;58.20;;;;;;4998124;28;20058;-44
2022/08/01 05:46:29;;;;;;;9.20;6.38;;;23.00;58.50;;;;;;4999964;28;20057;-47
2022/08/01 05:48:57;;;;;;;8.77;5.97;;;23.00;58.30;;;;;;5000403;28;20065;-44
2022/08/01 05:51:24;;;;;;;10.50;5.78;;;23.00;58.20;;;;;;4998511;28;20413;-46
2022/08/01 05:53:51;;;;;;;11.02;6.65;;;23.00;58.30;;;;;;4998122;28;20058;-43
2022/08/01 05:56:19;;;;;;;13.30;6.30;;;23.10;58.60;;;;;;5001894;28;20126;-47
2022/08/01 05:58:46;;;;;;;14.57;6.32;;;23.10;58.70;;;;;;4999675;28;20406;-45
2022/08/01 06:01:14;;;;;;;10.90;6.43;;;23.10;58.80;;;;;;4995181;28;20061;-42
2022/08/01 06:03:42;;;;;;;12.98;8.10;;;23.10;58.50;;;;;;4999890;28;20057;-44
2022/08/01 06:06:09;;;;;;;13.25;7.55;;;23.10;58.30;;;;;;5000117;28;20053;-43
2022/08/01 06:08:37;;;;;;;14.23;7.45;;;23.10;58.20;;;;;;5003228;28;20054;-45
2022/08/01 06:11:04;;;;;;;12.55;7.38;;;23.20;58.20;;;;;;5001673;28;20054;-44
2022/08/01 06:13:31;;;;;;;8.82;6.68;;;23.20;58.10;;;;;;5001653;28;20054;-44
2022/08/01 06:15:58;;;;;;;12.05;7.00;;;23.20;58.10;;;;;;5005926;28;20054;-45
2022/08/01 06:18:27;;;;;;;14.18;7.93;;;23.20;58.00;;;;;;5003482;28;20061;-42
2022/08/01 06:20:54;;;;;;;10.75;7.32;;;23.20;58.00;;;;;;4999440;28;20058;-44
2022/08/01 06:23:22;;;;;;;11.88;8.65;;;23.10;58.00;;;;;;5000075;28;20073;-43
2022/08/01 06:25:52;;;;;;;14.70;9.93;;;23.10;58.40;;;;;;5002116;28;20061;-43
2022/08/01 06:28:19;;;;;;;17.15;9.52;;;23.00;58.80;;;;;;5000643;28;20057;-44
2022/08/01 06:30:47;;;;;;;14.98;9.70;;;23.00;59.30;;;;;;5002583;28;20058;-43
2022/08/01 06:33:14;;;;;;;12.85;9.15;;;23.00;59.90;;;;;;5004545;28;20054;-42
2022/08/01 06:35:42;;;;;;;17.30;9.35;;;22.90;59.90;;;;;;5005609;28;20061;-44
2022/08/01 06:38:10;;;;;;;18.25;9.93;;;22.90;60.40;;;;;;5002912;28;20072;-44
2022/08/01 06:40:38;;;;;;;16.55;9.77;;;22.90;60.40;;;;;;5003728;28;20046;-45
2022/08/01 06:43:05;;;;;;;15.70;9.70;;;22.80;60.80;;;;;;5000482;28;20084;-42
2022/08/01 06:45:32;;;;;;;15.75;10.30;;;22.80;61.00;;;;;;5002942;28;20635;-43
2022/08/01 06:47:59;;;;;;;23.23;9.40;;;22.90;61.20;;;;;;5000675;28;20068;-46
2022/08/01 06:50:26;;;;;;;13.82;8.93;;;22.80;61.10;;;;;;5002793;28;20061;-42
2022/08/01 06:52:55;;;;;;;16.95;9.45;;;22.90;61.50;;;;;;5001861;28;20509;-43
2022/08/01 06:55:22;;;;;;;13.52;9.10;;;22.90;62.90;;;;;;4999761;28;20560;-46
2022/08/01 07:01:12;;;;;;;18.42;9.57;;;22.90;62.70;;;;;;4998832;28;20045;-43
2022/08/01 07:03:39;;;;;;;13.95;9.80;;;23.00;61.90;;;;;;5002270;28;20058;-45
2022/08/01 07:06:06;;;;;;;13.57;8.23;;;23.00;61.60;;;;;;5000070;28;20045;-44
2022/08/01 07:08:34;;;;;;;12.90;10.00;;;23.10;61.60;;;;;;5002796;28;20046;-43
2022/08/01 07:11:03;;;;;;;11.13;8.80;;;23.10;61.80;;;;;;4996551;28;20062;-46
2022/08/01 07:13:30;;;;;;;13.48;9.40;;;23.10;61.60;;;;;;5002076;28;20513;-43
2022/08/01 07:15:58;;;;;;;10.55;7.75;;;23.00;61.40;;;;;;5001988;28;20062;-44
2022/08/01 07:18:25;;;;;;;14.20;9.13;;;23.10;61.60;;;;;;5001313;28;20056;-41
2022/08/01 07:20:52;;;;;;;14.90;8.25;;;23.10;61.80;;;;;;4999606;28;20062;-42
2022/08/01 07:23:20;;;;;;;13.65;7.25;;;23.10;62.00;;;;;;5000808;28;20058;-42
2022/08/01 07:25:50;;;;;;;13.48;8.63;;;23.00;62.00;;;;;;5002093;28;20056;-42
2022/08/01 07:28:17;;;;;;;13.93;10.35;;;23.10;62.30;;;;;;4996135;28;20057;-42
2022/08/01 07:30:45;;;;;;;17.65;12.65;;;23.10;62.70;;;;;;4998642;28;20058;-42
2022/08/01 07:33:12;;;;;;;15.27;10.75;;;23.10;62.90;;;;;;5003853;28;20414;-43
2022/08/01 07:35:40;;;;;;;15.65;11.40;;;23.20;62.80;;;;;;5004159;28;20058;-44
2022/08/01 07:38:07;;;;;;;17.42;11.32;;;23.30;62.80;;;;;;5003892;28;20517;-45
2022/08/01 07:40:34;;;;;;;15.43;10.98;;;23.30;62.80;;;;;;4999458;28;20049;-43
2022/08/01 07:43:03;;;;;;;16.58;9.85;;;23.30;62.50;;;;;;4999244;28;20418;-44
2022/08/01 07:45:31;;;;;;;18.10;11.10;;;23.40;62.30;;;;;;4997900;28;20683;-45
2022/08/01 07:48:03;;;;;;;21.60;11.18;;;23.40;62.30;;;;;;5001196;28;20057;-44
2022/08/01 07:50:30;;;;;;;12.73;9.88;;;23.40;62.60;;;;;;5000721;28;20046;-44
2022/08/01 07:52:58;;;;;;;12.95;8.20;;;23.50;63.00;;;;;;5003236;28;20572;-43
2022/08/01 07:55:25;;;;;;;12.00;8.65;;;23.50;63.00;;;;;;5000267;28;20054;-44
2022/08/01 07:57:52;;;;;;;14.73;10.10;;;23.60;62.70;;;;;;4996928;28;20073;-46
2022/08/01 08:00:21;;;;;;;18.25;9.93;;;23.60;62.50;;;;;;4995765;28;20045;-43
2022/08/01 08:02:48;;;;;;;15.20;9.68;;;23.70;62.20;;;;;;5000665;28;20105;-43
2022/08/01 08:05:15;;;;;;;12.25;9.10;;;23.70;61.70;;;;;;4996476;28;20054;-42
2022/08/01 08:07:42;;;;;;;13.05;8.43;;;23.80;61.70;;;;;;4997592;28;20411;-44
2022/08/01 08:10:10;;;;;;;11.07;8.40;;;23.90;61.70;;;;;;5000981;28;20423;-42
2022/08/01 08:12:37;;;;;;;14.02;8.27;;;23.90;61.40;;;;;;5000747;28;20058;-43
2022/08/01 08:15:06;;;;;;;15.35;8.65;;;24.00;60.80;;;;;;4996353;28;20053;-45
2022/08/01 08:17:35;;;;;;;10.85;8.38;;;24.00;60.40;;;;;;5000952;28;20058;-45
2022/08/01 08:20:03;;;;;;;14.57;8.73;;;24.10;60.40;;;;;;4997204;28;20057;-43
2022/08/01 08:22:30;;;;;;;15.48;10.20;;;24.20;60.20;;;;;;4999666;28;20418;-44
2022/08/01 08:24:57;;;;;;;9.10;7.38;;;24.20;59.70;;;;;;4998854;28;20430;-45
2022/08/01 08:27:25;;;;;;;9.95;7.38;;;24.20;58.90;;;;;;5002145;28;20421;-47
2022/08/01 08:29:52;;;;;;;11.80;8.35;;;24.30;58.90;;;;;;5000838;28;20065;-45
2022/08/01 08:32:19;;;;;;;11.48;8.30;;;24.30;59.00;;;;;;4999609;28;20409;-44
2022/08/01 08:34:47;;;;;;;11.75;7.35;;;24.40;58.70;;;;;;5003045;28;20517;-44
2022/08/01 08:37:15;;;;;;;11.40;8.23;;;24.40;58.20;;;;;;5001928;28;20054;-42
2022/08/01 08:39:42;;;;;;;10.63;7.32;;;24.40;58.30;;;;;;5000637;28;20053;-46
2022/08/01 08:42:10;;;;;;;11.20;8.45;;;24.50;58.40;;;;;;5003057;28;20057;-43
2022/08/01 08:44:38;;;;;;;12.55;9.10;;;24.50;57.50;;;;;;5000693;28;20069;-46
2022/08/01 08:47:08;;;;;;;11.80;8.73;;;24.50;56.80;;;;;;5001608;28;20056;-44
2022/08/01 08:49:36;;;;;;;11.10;8.20;;;24.50;57.10;;;;;;5000118;28;20046;-42
2022/08/01 08:52:06;;;;;;;8.82;7.15;;;24.60;57.50;;;;;;4999090;28;20062;-43
2022/08/01 08:54:34;;;;;;;7.53;6.65;;;24.60;57.00;;;;;;4999398;28;20061;-42
2022/08/01 08:57:01;;;;;;;11.57;7.22;;;24.60;57.00;;;;;;5003215;28;20054;-44
2022/08/01 08:59:29;;;;;;;10.55;8.43;;;24.60;56.90;;;;;;5000889;28;20060;-42
2022/08/01 09:01:57;;;;;;;9.40;7.43;;;24.60;56.80;;;;;;4993658;28;20050;-44
2022/08/01 09:04:25;;;;;;;11.13;8.98;;;24.60;56.80;;;;;;5002460;28;20084;-43
2022/08/01 09:06:52;;;;;;;12.27;8.73;;;24.50;56.30;;;;;;5000408;28;20068;-43
2022/08/01 09:09:20;;;;;;;12.23;8.65;;;24.50;56.70;;;;;;5000321;28;20057;-46
2022/08/01 09:11:48;;;;;;;13.57;8.07;;;24.50;57.10;;;;;;4999146;28;20050;-44
2022/08/01 09:14:22;;;;;;;10.18;7.60;;;24.40;56.80;;;;;;4996241;28;20064;-43
2022/08/01 09:17:00;;;;;;;11.18;7.63;;;24.40;57.30;;;;;;4997282;28;20058;-43
2022/08/01 09:19:35;;;;;;;9.98;7.32;;;24.30;56.50;;;;;;4998240;28;20054;-47
2022/08/01 09:22:05;;;;;;;8.55;6.93;;;24.20;56.40;;;;;;5000669;28;20054;-45
2022/08/01 09:24:35;;;;;;;9.13;7.70;;;24.20;56.50;;;;;;4997810;28;20053;-46
2022/08/01 09:27:16;;;;;;;11.68;7.65;;;24.10;56.90;;;;;;5000330;28;20057;-42
2022/08/01 09:29:44;;;;;;;12.98;8.20;;;24.10;57.20;;;;;;4994732;28;20057;-43
2022/08/01 09:32:11;;;;;;;13.57;7.93;;;24.10;57.60;;;;;;4998449;28;20061;-44
2022/08/01 09:34:38;;;;;;;10.23;8.40;;;24.10;57.20;;;;;;4996799;28;20506;-43
2022/08/01 09:37:06;;;;;;;11.63;8.77;;;24.10;56.80;;;;;;4993214;28;20053;-43
2022/08/01 09:39:37;;;;;;;12.25;9.05;;;24.10;56.80;;;;;;5000770;28;20127;-44
2022/08/01 09:42:20;;;;;;;11.77;8.57;;;24.10;56.60;;;;;;5003304;28;20062;-45
2022/08/01 09:44:47;;;;;;;13.75;8.75;;;24.10;57.10;;;;;;5002355;28;20517;-44
2022/08/01 09:47:16;;;;;;;12.18;8.15;;;24.10;57.00;;;;;;5003502;28;20054;-43
2022/08/01 09:49:45;;;;;;;10.20;8.20;;;24.20;57.30;;;;;;5004053;28;20425;-44
2022/08/01 09:52:14;;;;;;;13.80;9.00;;;24.20;57.20;;;;;;5003701;28;20058;-43
2022/08/01 09:54:44;;;;;;;11.80;7.88;;;24.20;56.50;;;;;;5003332;28;20060;-49
2022/08/01 09:57:14;;;;;;;13.23;8.13;;;24.20;56.50;;;;;;5005332;28;20050;-46
2022/08/01 09:59:43;;;;;;;14.05;8.50;;;24.30;55.50;;;;;;4996817;28;20080;-48
2022/08/01 10:02:15;;;;;;;9.18;7.90;;;24.30;55.80;;;;;;5004561;28;20058;-46
2022/08/01 10:04:49;;;;;;;9.55;6.47;;;24.30;54.90;;;;;;5004181;28;20058;-48
2022/08/01 10:07:17;;;;;;;8.68;6.07;;;24.40;54.60;;;;;;5006113;28;20482;-43
2022/08/01 10:09:46;;;;;;;10.27;5.07;;;24.40;54.20;;;;;;5002923;28;20054;-45
2022/08/01 10:12:17;;;;;;;7.78;5.50;;;24.30;53.90;;;;;;5002663;28;20057;-46
2022/08/01 10:14:45;;;;;;;8.43;6.07;;;24.40;54.20;;;;;;5004731;28;20057;-43
2022/08/01 10:17:15;;;;;;;7.70;6.28;;;24.40;55.00;;;;;;5005922;28;20058;-45
2022/08/01 10:19:44;;;;;;;7.70;5.80;;;24.40;56.10;;;;;;5005017;28;20053;-43
2022/08/01 10:22:16;;;;;;;12.43;5.95;;;24.50;54.30;;;;;;5003922;28;20414;-47
2022/08/01 10:24:47;;;;;;;9.82;6.28;;;24.50;54.60;;;;;;5003848;28;20060;-45
2022/08/01 10:27:18;;;;;;;10.95;6.55;;;24.50;53.20;;;;;;5003014;28;20081;-48
2022/08/01 10:29:50;;;;;;;6.55;5.00;;;24.60;53.20;;;;;;5002650;28;20062;-43
2022/08/01 10:32:18;;;;;;;9.63;6.05;;;24.60;53.60;;;;;;5004684;28;20057;-43
2022/08/01 10:34:46;;;;;;;7.30;5.13;;;24.70;53.70;;;;;;5004248;28;20062;-45
2022/08/01 10:37:14;;;;;;;9.20;5.70;;;24.80;53.10;;;;;;5003236;28;20057;-44
2022/08/01 10:39:41;;;;;;;6.50;4.68;;;24.80;53.50;;;;;;5003804;28;20045;-43
2022/08/01 10:42:12;;;;;;;9.23;5.13;;;24.80;53.20;;;;;;5003876;28;20069;-49
2022/08/01 10:44:40;;;;;;;5.93;4.88;;;24.90;52.00;;;;;;5002118;28;20054;-44
2022/08/01 10:47:11;;;;;;;8.60;5.35;;;25.00;52.90;;;;;;5003512;28;20061;-42
2022/08/01 10:49:46;;;;;;;8.02;4.47;;;25.10;52.30;;;;;;5002733;28;20065;-44
2022/08/01 10:52:16;;;;;;;6.25;3.67;;;25.20;51.60;;;;;;4998039;28;20062;-44
2022/08/01 10:54:44;;;;;;;6.65;4.47;;;25.30;51.80;;;;;;4998123;28;20062;-44
2022/08/01 10:57:13;;;;;;;7.10;4.35;;;25.40;51.40;;;;;;5001510;28;20061;-44
2022/08/01 10:59:49;;;;;;;5.68;4.53;;;25.50;51.90;;;;;;5002457;28;20076;-44
2022/08/01 11:02:28;;;;;;;6.97;4.00;;;25.60;51.70;;;;;;5002687;28;20120;-42
2022/08/01 11:04:58;;;;;;;6.20;3.63;;;25.80;51.20;;;;;;5003140;28;20066;-42
2022/08/01 11:07:44;;;;;;;5.60;4.25;;;25.90;51.20;;;;;;5003177;28;20056;-43
2022/08/01 11:10:20;;;;;;;8.07;5.57;;;26.00;50.20;;;;;;5002217;28;20892;-44
2022/08/01 11:12:48;;;;;;;5.95;5.35;;;26.00;49.50;;;;;;5002473;28;20383;-43
2022/08/01 11:15:28;;;;;;;7.28;5.25;;;26.00;49.50;;;;;;5003199;28;20061;-42
2022/08/01 11:17:56;;;;;;;8.27;4.88;;;26.00;49.90;;;;;;5002769;28;20068;-43
2022/08/01 11:20:25;;;;;;;7.22;4.32;;;26.00;49.70;;;;;;5001899;28;20058;-45
2022/08/01 11:23:27;;;;;;;6.88;4.68;;;25.90;49.00;;;;;;5004029;28;20486;-43
2022/08/01 11:26:22;;;;;;;7.97;4.13;;;25.90;49.20;;;;;;5004070;28;20072;-42
2022/08/01 11:29:19;;;;;;;6.13;4.28;;;25.90;49.70;;;;;;5003017;28;20058;-43
2022/08/01 11:31:46;;;;;;;5.05;4.25;;;25.90;49.90;;;;;;5003426;28;20050;-44
2022/08/01 11:34:13;;;;;;;6.30;5.10;;;25.90;49.30;;;;;;5003800;28;20402;-43
2022/08/01 11:36:41;;;;;;;9.98;5.22;;;25.90;49.10;;;;;;5004307;28;20060;-42
2022/08/01 11:39:16;;;;;;;5.88;4.65;;;25.90;49.70;;;;;;5004497;28;20049;-42
2022/08/01 11:41:45;;;;;;;4.50;3.60;;;26.00;49.50;;;;;;5003323;28;20053;-44
2022/08/01 11:44:14;;;;;;;4.32;3.33;;;26.00;49.50;;;;;;5002082;28;20383;-43
2022/08/01 11:46:55;;;;;;;4.07;3.67;;;26.10;49.80;;;;;;5003904;28;20054;-41
2022/08/01 11:49:27;;;;;;;4.65;3.80;;;26.20;49.80;;;;;;5004346;28;20054;-44
2022/08/01 11:52:01;;;;;;;6.47;3.50;;;26.30;50.30;;;;;;5003356;28;20049;-47
2022/08/01 11:54:30;;;;;;;4.18;3.78;;;26.40;50.00;;;;;;5003722;28;20057;-44
2022/08/01 11:56:59;;;;;;;4.30;3.60;;;26.50;49.90;;;;;;5004517;28;20053;-41
2022/08/01 11:59:26;;;;;;;6.63;3.95;;;26.60;49.70;;;;;;5002523;28;20069;-42
2022/08/01 12:01:55;;;;;;;8.13;4.97;;;26.70;49.30;;;;;;5001769;28;20061;-41
2022/08/01 12:04:22;;;;;;;7.70;4.63;;;26.70;47.80;;;;;;5002171;28;20058;-44
2022/08/01 12:06:49;;;;;;;6.57;4.78;;;26.70;46.90;;;;;;5002725;28;20057;-46
2022/08/01 12:09:19;;;;;;;7.40;4.32;;;26.70;46.40;;;;;;5001262;28;20486;-44
2022/08/01 12:11:47;;;;;;;5.90;4.47;;;26.70;46.90;;;;;;5003029;28;20054;-42
2022/08/01 12:14:21;;;;;;;4.95;3.90;;;26.70;47.20;;;;;;5000410;28;20423;-42
2022/08/01 12:16:49;;;;;;;;;;;26.60;46.60;;;;;;5004158;28;20050;-46
2022/08/01 12:19:21;;;;;;;6.22;4.10;;;26.60;47.20;;;;;;5003721;28;19929;-47
2022/08/01 12:22:10;;;;;;;5.57;4.07;;;26.60;46.20;;;;;;5002525;28;20045;-42
2022/08/01 12:24:39;;;;;;;5.90;3.60;;;26.50;46.30;;;;;;5002274;28;20053;-45
2022/08/01 12:27:07;;;;;;;5.38;3.50;;;26.60;47.50;;;;;;5003483;28;20510;-44
2022/08/01 12:29:36;;;;;;;3.95;3.28;;;26.50;47.90;;;;;;5001200;28;20058;-43
2022/08/01 12:32:04;;;;;;;5.03;4.22;;;26.50;47.60;;;;;;5002970;28;20049;-42
2022/08/01 12:34:34;;;;;;;4.60;4.15;;;26.60;46.90;;;;;;5003768;28;20055;-44
2022/08/01 12:37:03;;;;;;;5.90;3.60;;;26.60;46.80;;;;;;5002691;28;20084;-43
2022/08/01 12:39:33;;;;;;;7.55;4.80;;;26.50;47.00;;;;;;5001859;28;20053;-46
2022/08/01 12:42:00;;;;;;;9.13;4.13;;;26.50;46.80;;;;;;4996010;28;20489;-44
2022/08/01 12:44:30;;;;;;;5.38;4.50;;;26.50;46.90;;;;;;4998319;28;20054;-43
2022/08/01 12:46:58;;;;;;;6.28;3.60;;;26.40;46.40;;;;;;4998423;28;20506;-45
2022/08/01 12:49:25;;;;;;;7.00;3.75;;;26.40;46.70;;;;;;5000012;28;20402;-46
2022/08/01 12:51:56;;;;;;;4.10;3.50;;;26.40;46.90;;;;;;5001440;28;20050;-42
2022/08/01 12:54:25;;;;;;;8.15;3.55;;;26.40;47.50;;;;;;5002084;28;20538;-41
2022/08/01 12:56:53;;;;;;;7.43;3.47;;;26.40;47.40;;;;;;5000307;28;20054;-41
2022/08/01 12:59:24;;;;;;;4.82;3.70;;;26.40;47.20;;;;;;5001436;28;20054;-43
2022/08/01 13:01:53;;;;;;;4.53;3.40;;;26.40;46.70;;;;;;4995153;28;20061;-46